Tenerife Norte / Los Rodeos GCXO

Aviation Digital Data Service (ADDS)

Output produced by METARs form (1013 UTC 21 February 2018)
Forecast for: GCXO (TENERIFE/LOS ROD, ES)
Text: TAF AMD GCXO 201458Z 2015/2115 31015KT 9999 BKN015 TX15/2114Z TN10/2106Z
Forecast period: 1500 UTC 20 February 2018 to 1500 UTC 21 February 2018
Forecast type: FROM: standard forecast or significant change
Winds: from the NW (310 degrees) at 17 MPH (15 knots; 7.8 m/s)
Visibility: 6 or more miles (10+ km)
Ceiling: 1500 feet AGL
Clouds: broken clouds at 1500 feet AGL
Weather: no significant weather forecast for this period
Text: TEMPO 2015/2022 32015G25KT
Forecast period: 1500 to 2200 UTC 20 February 2018
Forecast type: TEMPORARY: The following changes expected for less than half the time period
Winds: from the NW (320 degrees) at 17 MPH (15 knots; 7.8 m/s)
gusting to 29 MPH (25 knots; 13.0 m/s)
Weather: no significant weather forecast for this period
Text: TEMPO 2018/2108 BKN009
Forecast period: 1800 UTC 20 February 2018 to 0800 UTC 21 February 2018
Forecast type: TEMPORARY: The following changes expected for less than half the time period
Ceiling: 900 feet AGL
Clouds: broken clouds at 900 feet AGL
Weather: no significant weather forecast for this period
Text: PROB30
Forecast period: 0000 to 0700 UTC 21 February 2018
Forecast type: TEMPORARY: The following changes expected for less than half the time period
Weather: RA  (rain)

Tenerife Sur / Aeropuerto GCTS

Aviation Digital Data Service (ADDS)

Output produced by METARs form (1013 UTC 21 February 2018)
Forecast for: GCTS (TENERIFE SUR/REI, ES)
Text: TAF GCTS 201400Z 2015/2115 09015KT 9999 SCT040 TX22/2114Z TN12/2106Z
Forecast period: 1500 to 1900 UTC 20 February 2018
Forecast type: FROM: standard forecast or significant change
Winds: from the E (90 degrees) at 17 MPH (15 knots; 7.8 m/s)
Visibility: 6 or more miles (10+ km)
Clouds: scattered clouds at 4000 feet AGL
Weather: no significant weather forecast for this period
Text: BECMG 2019/2021 36006KT
Forecast period: 1900 UTC 20 February 2018 to 1000 UTC 21 February 2018
Forecast type: BECOMING: Conditions expected to become as follows by 2100 UTC 20 February 2018
Winds: from the N (360 degrees) at 7 MPH (6 knots; 3.1 m/s)
Visibility: 6 or more miles (10+ km)
Clouds: scattered clouds at 4000 feet AGL
Weather: no significant weather forecast for this period
Text: BECMG 2110/2112 12010KT
Forecast period: 1000 to 1500 UTC 21 February 2018
Forecast type: BECOMING: Conditions expected to become as follows by 1200 UTC 21 February 2018
Winds: from the ESE (120 degrees) at 12 MPH (10 knots; 5.2 m/s)
Visibility: 6 or more miles (10+ km)
Clouds: scattered clouds at 4000 feet AGL
Weather: no significant weather forecast for this period

La Palma / Aeropuerto GCLA

Aviation Digital Data Service (ADDS)

Output produced by METARs form (1013 UTC 21 February 2018)
Forecast for: GCLA (LA PALMA AIRPORT, ES)
Text: TAF GCLA 201400Z 2015/2115 02012KT 9999 SCT030 TX20/2114Z TN16/2106Z
Forecast period: 1500 to 2000 UTC 20 February 2018
Forecast type: FROM: standard forecast or significant change
Winds: from the NNE (20 degrees) at 14 MPH (12 knots; 6.2 m/s)
Visibility: 6 or more miles (10+ km)
Clouds: scattered clouds at 3000 feet AGL
Weather: no significant weather forecast for this period
Text: BECMG 2020/2022 32006KT
Forecast period: 2000 UTC 20 February 2018 to 1000 UTC 21 February 2018
Forecast type: BECOMING: Conditions expected to become as follows by 2200 UTC 20 February 2018
Winds: from the NW (320 degrees) at 7 MPH (6 knots; 3.1 m/s)
Visibility: 6 or more miles (10+ km)
Clouds: scattered clouds at 3000 feet AGL
Weather: no significant weather forecast for this period
Text: BECMG 2110/2112 03010KT
Forecast period: 1000 to 1500 UTC 21 February 2018
Forecast type: BECOMING: Conditions expected to become as follows by 1200 UTC 21 February 2018
Winds: from the NNE (30 degrees) at 12 MPH (10 knots; 5.2 m/s)
Visibility: 6 or more miles (10+ km)
Clouds: scattered clouds at 3000 feet AGL
Weather: no significant weather forecast for this period

Hierro / Aeropuerto GCHI

Aviation Digital Data Service (ADDS)

Output produced by METARs form (1013 UTC 21 February 2018)
Forecast for: GCHI (HIERRO AIRPORT , ES)
Text: TAF GCHI 201400Z 2015/2115 01013KT 9999 SCT030 TX20/2114Z TN17/2106Z
Forecast period: 1500 UTC 20 February 2018 to 1500 UTC 21 February 2018
Forecast type: FROM: standard forecast or significant change
Winds: from the N (10 degrees) at 15 MPH (13 knots; 6.8 m/s)
Visibility: 6 or more miles (10+ km)
Clouds: scattered clouds at 3000 feet AGL
Weather: no significant weather forecast for this period

Gran Canaria / Aeropuerto GCLP

Aviation Digital Data Service (ADDS)

Output produced by METARs form (1013 UTC 21 February 2018)
Forecast for: GCLP (LAS PALMAS/GANDO, ES)
Text: TAF GCLP 201400Z 2015/2115 01016KT 9999 SCT035 TX21/2114Z TN14/2106Z
Forecast period: 1500 UTC 20 February 2018 to 1500 UTC 21 February 2018
Forecast type: FROM: standard forecast or significant change
Winds: from the N (10 degrees) at 18 MPH (16 knots; 8.3 m/s)
Visibility: 6 or more miles (10+ km)
Clouds: scattered clouds at 3500 feet AGL
Weather: no significant weather forecast for this period
Text: PROB40
Forecast period: 0300 to 0800 UTC 21 February 2018
Forecast type: TEMPORARY: The following changes expected for less than half the time period
Winds: from the NNW (330 degrees) at 7 MPH (6 knots; 3.1 m/s)
Weather: no significant weather forecast for this period

Fuerteventura / Aeropuerto GCFV

Aviation Digital Data Service (ADDS)

Output produced by METARs form (1003 UTC 21 February 2018)
Forecast for: GCFV (FUERTEVENTURA AR, ES)
Text: TAF GCFV 201400Z 2015/2115 04011KT 9999 SCT035 TX20/2114Z TN14/2106Z
Forecast period: 1500 to 1700 UTC 20 February 2018
Forecast type: FROM: standard forecast or significant change
Winds: from the NE (40 degrees) at 13 MPH (11 knots; 5.7 m/s)
Visibility: 6 or more miles (10+ km)
Clouds: scattered clouds at 3500 feet AGL
Weather: no significant weather forecast for this period
Text: BECMG 2017/2019 33009KT
Forecast period: 1700 UTC 20 February 2018 to 0900 UTC 21 February 2018
Forecast type: BECOMING: Conditions expected to become as follows by 1900 UTC 20 February 2018
Winds: from the NNW (330 degrees) at 10 MPH (9 knots; 4.7 m/s)
Visibility: 6 or more miles (10+ km)
Clouds: scattered clouds at 3500 feet AGL
Weather: no significant weather forecast for this period
Text: BECMG 2109/2111 03012KT
Forecast period: 0900 to 1500 UTC 21 February 2018
Forecast type: BECOMING: Conditions expected to become as follows by 1100 UTC 21 February 2018
Winds: from the NNE (30 degrees) at 14 MPH (12 knots; 6.2 m/s)
Visibility: 6 or more miles (10+ km)
Clouds: scattered clouds at 3500 feet AGL
Weather: no significant weather forecast for this period

Lanzarote / Aeropuerto GCRR

Aviation Digital Data Service (ADDS)

Output produced by METARs form (1013 UTC 21 February 2018)
Forecast for: GCRR (ARRECIFE/LANZARO, ES)
Text: TAF GCRR 201400Z 2015/2115 35014KT 9999 SCT035 TX21/2114Z TN13/2106Z
Forecast period: 1500 UTC 20 February 2018 to 1500 UTC 21 February 2018
Forecast type: FROM: standard forecast or significant change
Winds: from the N (350 degrees) at 16 MPH (14 knots; 7.3 m/s)
Visibility: 6 or more miles (10+ km)
Clouds: scattered clouds at 3500 feet AGL
Weather: no significant weather forecast for this period
Text: PROB40
Forecast period: 0000 to 0800 UTC 21 February 2018
Forecast type: TEMPORARY: The following changes expected for less than half the time period
Winds: from the NNW (340 degrees) at 5 MPH (4 knots; 2.1 m/s)
Weather: no significant weather forecast for this period